AWG-1

EHMA · Friesland, 荷兰

2023年1月28日 11:002023年1月28日 23:00有效
时间
星期六
11:00
星期六
12:00
星期六
13:00
星期六
14:00
星期六
15:00
星期六
16:00
星期六
17:00
星期六
18:00
星期六
19:00
星期六
20:00
星期六
21:00
>40%
星期六
22:00
>40%
代码
VFR
VFR
VFR
VFR
VFR
VFR
VFR
VFR
VFR
MVFR
LIFR
LIFR
天气
碎云
碎云
碎云
碎云
碎云
碎云
碎云
碎云
碎云
碎云
光 细雨
天空晴朗
光 细雨
天空晴朗
能见度
10 km+
10 km+
10 km+
10 km+
10 km+
10 km+
10 km+
10 km+
10 km+
10 km+
3 km
3 km
天花板
3.200 ft
3.200 ft
3.200 ft
3.200 ft
3.200 ft
3.200 ft
3.200 ft
3.200 ft
3.200 ft
1.600 ft
400 ft
400 ft
230°
230°
230°
230°
230°
230°
230°
230°
230°
230°
230°
230°
230°
230°
230°
230°
230°
230°
230°
230°
230°
230°
230°
230°
速度
5 kt
5 kt
5 kt
5 kt
5 kt
5 kt
5 kt
5 kt
5 kt
5 kt
5 kt
5 kt
阵风
温度/星期日
17:12

原版的

TAF EHLW 280925Z 2810/2822 23005KT 9999 OVC032
BECMG 2819/2821 SCT012 BKN016 OVC022
TEMPO 2820/2822 3000 -DZ BKN004 OVC006

TAF AWG-1

AWG-1是,荷兰中的直升机场。 该领域的国际民航组织标志是EHMA.

这份报告是针对2023年1月28日 10:25, 当地时间在Leeuwarden Air Base进行的。 从2023年1月28日 11:00到2023年1月28日 23:00, 当地时间有效.

预报

  • 在星期六 11:00和23:00之间

    • 风: 风来自230°方向,速度为5 kt。
    • 能见度: 10 km 或者更多
    • 乌云: 乌云密布在3.200 ft的高度.
  • 介于星期六 20:00和22:00之间

    • 乌云: 疏云,零星散落的云朵在1.200 ft的高度, 碎云在1.600 ft的高度 和 乌云密布在2.200 ft的高度.
  • 暂时在星期六 21:00和23:00之间

    • 能见度: 3 km
    • 天气: 光 细雨
    • 乌云: 碎云在400 ft的高度 和 乌云密布在600 ft的高度.

白天

今天,太阳从08:27升起,在17:10降落。 这适用于AWG-1,世界夏令时可能有所不同。 当地时间与世界标准时间之间的时差为+1 小时。 当前,没有夏令时有效。

我们和第三方通过cookies跟踪您在我们网站上的互联网行为。如果你继续,我们认为你同意我们的饼干政策